Time;durP1;ratioP1;P1;durP2;ratioP2;P2;SDS_P1;SDS_P2;PMS_P1;PMS_P2;Temp;Humidity;BMP_temperature;BMP_pressure;BME280_temperature;BME280_humidity;BME280_pressure;Samples;Min_cycle;Max_cycle;Signal;HPM_P1;HPM_P2
2022/12/30 00:01:06;;;;;;;21.88;4.43;;;6.40;99.90;;;;;;5036619;28;20045;-27
2022/12/30 00:03:32;;;;;;;18.10;3.95;;;6.30;99.90;;;;;;5036009;28;20049;-27
2022/12/30 00:05:58;;;;;;;16.63;2.35;;;6.30;99.90;;;;;;5035981;28;20072;-27
2022/12/30 00:11:08;;;;;;;18.13;4.68;;;6.40;99.90;;;;;;5036090;28;20057;-27
2022/12/30 00:34:18;;;;;;;26.67;4.13;;;6.30;99.90;;;;;;5036035;28;20049;-28
2022/12/30 00:36:46;;;;;;;23.30;3.08;;;6.30;99.90;;;;;;5035408;28;20435;-28
2022/12/30 00:39:12;;;;;;;23.00;4.18;;;6.30;99.90;;;;;;5035261;28;20050;-28
2022/12/30 00:44:22;;;;;;;19.25;4.13;;;6.30;99.90;;;;;;5034976;28;20427;-27
2022/12/30 00:46:48;;;;;;;20.27;3.83;;;6.30;99.90;;;;;;5035163;28;20057;-27
2022/12/30 00:57:28;;;;;;;19.35;3.42;;;6.30;99.90;;;;;;5035740;28;20049;-28
2022/12/30 00:59:54;;;;;;;20.55;4.97;;;6.30;99.90;;;;;;5034922;28;20052;-27
2022/12/30 01:02:21;;;;;;;20.38;2.80;;;6.30;99.90;;;;;;5020227;28;20065;-27
2022/12/30 01:04:47;;;;;;;22.30;3.20;;;6.30;99.90;;;;;;5034595;28;20053;-27
2022/12/30 01:07:13;;;;;;;23.23;3.03;;;6.20;99.90;;;;;;5033707;28;20056;-27
2022/12/30 01:09:39;;;;;;;14.90;3.08;;;6.00;99.90;;;;;;5034850;28;20545;-27
2022/12/30 01:12:09;;;;;;;24.92;3.38;;;6.00;99.90;;;;;;5034650;28;20041;-27
2022/12/30 01:14:49;;;;;;;16.98;2.97;;;6.00;99.90;;;;;;5034680;28;20041;-27
2022/12/30 01:17:27;;;;;;;25.15;4.18;;;5.90;99.90;;;;;;5034693;28;20052;-27
2022/12/30 01:19:54;;;;;;;25.08;3.70;;;5.90;99.90;;;;;;5034699;28;20054;-28
2022/12/30 01:22:20;;;;;;;29.30;4.43;;;5.80;99.90;;;;;;5034553;28;20042;-28
2022/12/30 01:24:46;;;;;;;19.00;2.92;;;5.80;99.90;;;;;;5033548;28;20183;-28
2022/12/30 01:27:12;;;;;;;19.85;3.55;;;5.80;99.90;;;;;;5034993;28;20472;-28
2022/12/30 01:29:41;;;;;;;24.55;3.33;;;5.70;99.90;;;;;;5034364;28;20577;-28
2022/12/30 01:32:12;;;;;;;18.83;4.28;;;5.70;99.90;;;;;;5034060;28;20050;-27
2022/12/30 01:34:38;;;;;;;27.08;3.75;;;5.60;99.90;;;;;;5034858;28;20053;-27
2022/12/30 01:37:05;;;;;;;20.73;2.80;;;5.50;99.90;;;;;;5035108;28;20050;-28
2022/12/30 01:39:31;;;;;;;24.85;3.05;;;5.40;99.90;;;;;;5034250;28;20080;-28
2022/12/30 01:41:58;;;;;;;23.92;3.47;;;5.40;99.90;;;;;;5034485;28;20128;-27
2022/12/30 01:44:50;;;;;;;22.55;3.97;;;5.30;99.90;;;;;;5034150;28;20045;-27
2022/12/30 01:47:37;;;;;;;19.27;2.70;;;5.20;99.90;;;;;;5034039;28;20518;-28
2022/12/30 01:50:09;;;;;;;25.63;4.05;;;5.10;99.90;;;;;;5034536;28;20060;-28
2022/12/30 01:52:40;;;;;;;25.23;4.25;;;5.10;99.90;;;;;;5033983;28;20045;-28
2022/12/30 01:55:17;;;;;;;22.23;3.08;;;5.10;99.90;;;;;;5034897;28;20049;-28
2022/12/30 01:57:48;;;;;;;30.02;3.85;;;5.10;99.90;;;;;;5034756;28;20056;-28
2022/12/30 02:00:14;;;;;;;24.35;3.10;;;5.10;99.90;;;;;;5034506;28;20412;-28
2022/12/30 02:02:40;;;;;;;25.70;3.78;;;5.10;99.90;;;;;;5033635;28;20065;-28
2022/12/30 02:05:07;;;;;;;18.75;3.10;;;5.10;99.90;;;;;;5034351;28;20092;-28
2022/12/30 02:07:47;;;;;;;29.40;4.40;;;5.10;99.90;;;;;;5034601;28;20053;-27
2022/12/30 02:10:13;;;;;;;26.35;3.88;;;5.10;99.90;;;;;;5034081;28;20049;-28
2022/12/30 02:12:39;;;;;;;21.55;3.95;;;5.10;99.90;;;;;;5034234;28;20044;-28
2022/12/30 02:15:05;;;;;;;26.92;4.22;;;5.00;99.90;;;;;;5033651;28;20045;-28
2022/12/30 02:17:40;;;;;;;23.40;5.50;;;5.00;99.90;;;;;;5034468;28;20057;-27
2022/12/30 02:20:32;;;;;;;20.90;3.72;;;5.10;99.90;;;;;;5033677;28;20132;-27
2022/12/30 02:23:19;;;;;;;25.25;3.85;;;5.00;99.90;;;;;;5034470;28;20037;-28
2022/12/30 02:26:23;;;;;;;29.33;4.35;;;5.00;99.90;;;;;;5033616;28;20075;-28
2022/12/30 02:29:07;;;;;;;18.90;4.05;;;5.00;99.90;;;;;;5033863;28;20046;-28
2022/12/30 02:31:45;;;;;;;31.27;3.22;;;5.10;99.90;;;;;;5016872;28;20534;-28
2022/12/30 02:34:39;;;;;;;25.20;3.67;;;5.10;99.90;;;;;;5033554;28;20049;-27
2022/12/30 02:37:21;;;;;;;32.35;4.25;;;5.10;99.90;;;;;;5016110;28;20135;-28
2022/12/30 02:39:47;;;;;;;29.00;4.68;;;5.20;99.90;;;;;;5034334;28;20045;-28
2022/12/30 02:45:15;;;;;;;26.05;4.32;;;5.10;99.90;;;;;;5033716;28;20053;-28
2022/12/30 02:47:46;;;;;;;21.63;3.42;;;5.10;99.90;;;;;;5033083;28;20435;-28
2022/12/30 02:53:06;;;;;;;17.73;2.78;;;5.00;99.90;;;;;;5033303;28;20472;-28
2022/12/30 02:55:32;;;;;;;23.95;3.45;;;5.00;99.90;;;;;;5015747;28;20060;-28
2022/12/30 02:57:57;;;;;;;28.70;3.72;;;5.00;99.90;;;;;;4999471;28;20072;-27
2022/12/30 03:06:41;;;;;;;24.83;4.35;;;5.10;99.90;;;;;;5037328;28;20049;-28
2022/12/30 03:09:28;;;;;;;21.08;3.67;;;5.00;99.90;;;;;;5037095;28;20056;-27
2022/12/30 03:12:00;;;;;;;22.83;3.90;;;5.00;99.90;;;;;;5019326;28;20046;-28
2022/12/30 03:14:45;;;;;;;22.13;3.65;;;5.00;99.90;;;;;;5036899;28;20060;-28
2022/12/30 03:17:23;;;;;;;26.95;4.03;;;5.10;99.90;;;;;;5037438;28;20128;-27
2022/12/30 03:19:54;;;;;;;19.83;3.92;;;5.10;99.90;;;;;;5020268;28;20084;-28
2022/12/30 03:27:57;;;;;;;26.77;3.75;;;5.10;99.90;;;;;;5037294;28;20092;-28
2022/12/30 03:30:23;;;;;;;22.90;3.55;;;5.10;99.90;;;;;;5036646;28;20045;-28
2022/12/30 03:32:48;;;;;;;28.98;3.70;;;5.10;99.90;;;;;;5036554;28;20049;-28
2022/12/30 03:35:15;;;;;;;33.80;4.60;;;5.10;99.90;;;;;;5036807;28;20041;-27
2022/12/30 03:37:45;;;;;;;31.02;4.50;;;5.00;99.90;;;;;;5036506;28;20046;-28
2022/12/30 03:40:20;;;;;;;33.78;4.80;;;5.00;99.90;;;;;;5037051;28;20045;-27
2022/12/30 03:42:47;;;;;;;20.73;3.50;;;5.00;99.90;;;;;;5036475;28;20490;-28
2022/12/30 03:45:14;;;;;;;23.83;4.25;;;5.10;99.90;;;;;;5018959;28;20072;-28
2022/12/30 03:47:40;;;;;;;23.10;4.68;;;5.00;99.90;;;;;;5036387;28;20124;-28
2022/12/30 03:50:06;;;;;;;27.35;5.13;;;5.00;99.90;;;;;;5036301;28;20081;-27
2022/12/30 03:52:32;;;;;;;21.73;3.70;;;5.00;99.90;;;;;;5036154;28;20037;-28
2022/12/30 03:54:57;;;;;;;22.02;3.88;;;5.00;99.90;;;;;;5036165;28;20057;-28
2022/12/30 03:57:23;;;;;;;22.60;3.88;;;4.80;99.90;;;;;;5018843;28;20125;-28
2022/12/30 03:59:49;;;;;;;24.33;3.80;;;4.80;99.90;;;;;;5036100;28;20103;-28
2022/12/30 04:02:15;;;;;;;25.23;4.63;;;4.70;99.90;;;;;;5019212;28;20053;-28
2022/12/30 04:04:41;;;;;;;24.27;4.15;;;4.70;99.90;;;;;;5036636;28;20484;-28
2022/12/30 04:07:06;;;;;;;29.48;4.07;;;4.70;99.90;;;;;;5036057;28;20128;-28
2022/12/30 04:09:32;;;;;;;30.67;4.35;;;4.60;99.90;;;;;;5035865;28;20092;-28
2022/12/30 04:11:58;;;;;;;36.33;4.93;;;4.60;99.90;;;;;;5035733;28;20044;-28
2022/12/30 04:14:24;;;;;;;27.77;5.10;;;4.50;99.90;;;;;;5035868;28;20056;-28
2022/12/30 04:16:49;;;;;;;32.30;5.15;;;4.50;99.90;;;;;;5035793;28;20049;-28
2022/12/30 04:19:15;;;;;;;27.73;5.30;;;4.50;99.90;;;;;;5036326;28;20046;-28
2022/12/30 04:21:41;;;;;;;34.58;6.50;;;4.50;99.90;;;;;;5035720;28;20094;-28
2022/12/30 04:24:07;;;;;;;27.30;6.15;;;4.50;99.90;;;;;;5035665;28;20207;-28
2022/12/30 04:26:33;;;;;;;27.70;5.20;;;4.50;99.90;;;;;;5035637;28;20377;-28
2022/12/30 04:28:59;;;;;;;27.38;5.57;;;4.60;99.90;;;;;;5018144;28;20075;-27
2022/12/30 04:31:25;;;;;;;30.75;6.40;;;4.50;99.90;;;;;;5035471;28;20080;-28
2022/12/30 04:33:52;;;;;;;23.85;5.22;;;4.50;99.90;;;;;;5035490;28;20151;-27
2022/12/30 04:36:19;;;;;;;25.77;5.65;;;4.50;99.90;;;;;;5034221;28;20084;-27
2022/12/30 04:38:45;;;;;;;23.80;5.28;;;4.60;99.90;;;;;;5035981;28;20057;-27
2022/12/30 04:41:12;;;;;;;22.67;4.90;;;4.60;99.90;;;;;;5035439;28;20138;-28
2022/12/30 04:43:38;;;;;;;32.08;6.65;;;4.60;99.90;;;;;;5035323;28;20060;-28
2022/12/30 04:46:04;;;;;;;27.73;4.65;;;4.70;99.90;;;;;;5035508;28;20132;-28
2022/12/30 04:48:30;;;;;;;29.20;6.97;;;4.70;99.90;;;;;;5036020;28;20049;-28
2022/12/30 04:50:56;;;;;;;32.08;5.13;;;4.80;99.90;;;;;;5035263;28;20041;-28
2022/12/30 04:53:22;;;;;;;20.10;5.07;;;4.80;99.90;;;;;;5035061;28;20041;-27
2022/12/30 04:55:55;;;;;;;24.13;4.95;;;4.80;99.90;;;;;;5035052;28;20053;-27
2022/12/30 04:58:21;;;;;;;;;;;4.70;99.90;;;;;;5035930;28;20049;-28
2022/12/30 05:00:49;;;;;;;19.27;5.18;;;4.70;99.90;;;;;;5035254;28;19921;-27
2022/12/30 05:03:15;;;;;;;16.42;3.55;;;4.70;99.90;;;;;;5034956;28;20111;-28
2022/12/30 05:05:41;;;;;;;20.55;4.15;;;4.80;99.90;;;;;;5034883;28;20057;-28
2022/12/30 05:08:07;;;;;;;22.35;4.53;;;4.80;99.90;;;;;;5034800;28;20503;-28
2022/12/30 05:10:34;;;;;;;25.30;6.82;;;4.90;99.90;;;;;;5017360;28;20049;-28
2022/12/30 05:13:00;;;;;;;15.63;3.90;;;5.00;99.90;;;;;;5034899;28;20057;-28
2022/12/30 05:15:26;;;;;;;24.02;4.97;;;5.00;99.90;;;;;;5017257;28;20387;-28
2022/12/30 05:17:52;;;;;;;23.33;4.53;;;5.10;99.90;;;;;;5035191;28;20041;-28
2022/12/30 05:20:18;;;;;;;37.30;5.47;;;5.10;99.90;;;;;;5034574;28;20132;-28
2022/12/30 05:22:44;;;;;;;25.05;4.55;;;5.10;99.90;;;;;;5034187;28;20064;-28
2022/12/30 05:27:54;;;;;;;22.98;4.85;;;5.10;99.90;;;;;;5020135;28;20053;-28
2022/12/30 05:30:20;;;;;;;17.42;5.13;;;5.10;99.90;;;;;;5035193;28;20056;-28
2022/12/30 05:32:46;;;;;;;18.83;6.78;;;5.10;99.90;;;;;;5034820;28;20372;-28
2022/12/30 05:35:12;;;;;;;22.42;6.43;;;5.10;99.90;;;;;;5034378;28;20056;-28
2022/12/30 05:37:38;;;;;;;23.13;7.32;;;5.10;99.90;;;;;;5034575;28;20128;-28
2022/12/30 05:40:04;;;;;;;23.13;8.38;;;5.10;99.90;;;;;;5034224;28;20084;-28
2022/12/30 05:42:30;;;;;;;25.30;7.68;;;5.10;99.90;;;;;;5033904;28;20487;-28
2022/12/30 05:44:56;;;;;;;25.08;8.45;;;5.10;99.90;;;;;;5034163;28;20060;-27
2022/12/30 05:47:22;;;;;;;24.50;8.55;;;5.10;99.90;;;;;;5034907;28;20045;-28
2022/12/30 05:49:48;;;;;;;31.25;10.25;;;5.10;99.90;;;;;;5034080;28;20068;-28
2022/12/30 05:52:14;;;;;;;29.40;10.75;;;5.20;99.90;;;;;;5034571;28;20368;-28
2022/12/30 05:54:41;;;;;;;21.08;9.82;;;5.30;99.90;;;;;;5034823;28;20124;-28
2022/12/30 05:57:07;;;;;;;20.98;10.10;;;5.40;99.90;;;;;;5033971;28;20048;-28
2022/12/30 05:59:33;;;;;;;32.42;10.60;;;5.40;99.90;;;;;;5033833;28;20045;-28
2022/12/30 06:01:59;;;;;;;24.55;9.52;;;5.40;99.90;;;;;;5016102;28;20052;-28
2022/12/30 06:04:25;;;;;;;28.85;9.38;;;5.40;99.90;;;;;;5034739;28;20049;-28
2022/12/30 06:06:51;;;;;;;18.85;7.90;;;5.50;99.90;;;;;;5016460;28;20122;-28
2022/12/30 06:09:17;;;;;;;28.50;9.15;;;5.50;99.90;;;;;;5016169;28;20087;-28
2022/12/30 06:11:43;;;;;;;18.92;5.95;;;5.40;99.90;;;;;;5034234;28;20402;-28
2022/12/30 06:14:10;;;;;;;19.15;6.95;;;5.40;99.90;;;;;;5033768;28;20188;-28
2022/12/30 06:16:36;;;;;;;17.33;6.15;;;5.30;99.90;;;;;;5033909;28;20506;-28
2022/12/30 06:19:02;;;;;;;18.92;5.95;;;5.20;99.90;;;;;;5033626;28;20057;-27
2022/12/30 06:21:28;;;;;;;25.48;6.82;;;5.10;99.90;;;;;;5033602;28;20045;-27
2022/12/30 06:23:54;;;;;;;16.65;6.13;;;5.00;99.90;;;;;;5033617;28;20427;-28
2022/12/30 06:26:19;;;;;;;22.15;6.88;;;5.00;99.90;;;;;;5000540;28;20049;-28
2022/12/30 06:28:45;;;;;;;24.95;6.95;;;4.90;99.90;;;;;;5034079;28;20049;-27
2022/12/30 06:31:11;;;;;;;19.52;6.50;;;4.90;99.90;;;;;;5033517;28;20045;-28
2022/12/30 06:33:37;;;;;;;21.35;5.68;;;4.90;99.90;;;;;;5033136;28;20088;-27
2022/12/30 06:36:03;;;;;;;19.27;6.25;;;4.80;99.90;;;;;;5018896;28;20095;-28
2022/12/30 06:38:28;;;;;;;26.95;6.97;;;4.80;99.90;;;;;;5037608;28;20056;-28
2022/12/30 06:40:54;;;;;;;17.60;5.25;;;4.80;99.90;;;;;;5037810;28;20045;-27
2022/12/30 06:43:20;;;;;;;22.90;5.60;;;4.70;99.90;;;;;;5038058;28;20099;-28
2022/12/30 06:45:46;;;;;;;28.80;6.43;;;4.60;99.90;;;;;;5020011;28;20171;-27
2022/12/30 06:48:11;;;;;;;22.20;5.47;;;4.50;99.90;;;;;;5020790;28;20081;-27
2022/12/30 06:50:37;;;;;;;18.13;5.03;;;4.50;99.90;;;;;;5037373;28;20046;-28
2022/12/30 06:53:04;;;;;;;23.48;5.60;;;4.40;99.90;;;;;;5037227;28;20049;-28
2022/12/30 06:55:30;;;;;;;21.80;5.65;;;4.40;99.90;;;;;;5037608;28;20041;-27
2022/12/30 06:57:55;;;;;;;24.50;6.25;;;4.40;99.90;;;;;;5037206;28;20626;-28
2022/12/30 07:00:21;;;;;;;17.77;4.90;;;4.40;99.90;;;;;;5019797;28;20049;-27
2022/12/30 07:02:47;;;;;;;20.73;5.10;;;4.30;99.90;;;;;;5037699;28;20057;-27
2022/12/30 07:05:13;;;;;;;20.58;5.90;;;4.30;99.90;;;;;;5020028;28;20049;-27
2022/12/30 07:07:39;;;;;;;17.15;5.82;;;4.30;99.90;;;;;;5037609;28;20042;-27
2022/12/30 07:10:05;;;;;;;32.00;6.18;;;4.30;99.90;;;;;;5036994;28;20049;-27
2022/12/30 07:12:31;;;;;;;24.65;4.93;;;4.20;99.90;;;;;;5036906;28;20041;-27
2022/12/30 07:14:57;;;;;;;18.40;4.47;;;4.20;99.90;;;;;;5036887;28;20041;-27
2022/12/30 07:17:22;;;;;;;24.73;5.63;;;4.20;99.90;;;;;;5036916;28;20050;-28
2022/12/30 07:19:48;;;;;;;19.77;5.28;;;4.20;99.90;;;;;;5036833;28;20522;-27
2022/12/30 07:22:16;;;;;;;25.25;4.93;;;4.20;99.90;;;;;;5037291;28;20399;-27
2022/12/30 07:24:42;;;;;;;24.25;4.03;;;4.20;99.90;;;;;;5036669;28;20502;-27
2022/12/30 07:27:11;;;;;;;21.98;5.40;;;4.10;99.90;;;;;;5036764;28;20049;-28
2022/12/30 07:29:38;;;;;;;16.05;4.53;;;4.20;99.90;;;;;;5036694;28;20131;-28
2022/12/30 07:32:05;;;;;;;18.92;4.50;;;4.20;99.90;;;;;;5037155;28;20436;-28
2022/12/30 07:34:31;;;;;;;17.35;4.45;;;4.10;99.90;;;;;;5036576;28;20071;-27
2022/12/30 07:36:56;;;;;;;22.95;3.78;;;4.10;99.90;;;;;;5036498;28;20056;-27
2022/12/30 07:39:22;;;;;;;25.85;4.85;;;4.10;99.90;;;;;;5037046;28;20048;-27
2022/12/30 07:41:48;;;;;;;24.48;5.28;;;4.10;99.90;;;;;;5019023;28;20439;-28
2022/12/30 07:44:14;;;;;;;18.23;3.92;;;4.10;99.90;;;;;;5036945;28;20447;-27
2022/12/30 07:46:40;;;;;;;22.10;3.53;;;4.10;99.90;;;;;;5018274;28;20055;-27
2022/12/30 07:49:06;;;;;;;18.27;3.83;;;4.00;99.90;;;;;;5035901;28;20473;-27
2022/12/30 07:51:31;;;;;;;20.58;3.95;;;4.00;99.90;;;;;;5018720;28;20045;-27
2022/12/30 07:53:58;;;;;;;20.52;3.15;;;5.20;99.90;;;;;;5036640;28;20119;-27
2022/12/30 07:56:24;;;;;;;21.33;3.13;;;4.30;99.90;;;;;;5036117;28;20056;-27
2022/12/30 07:58:53;;;;;;;21.23;4.15;;;3.90;99.90;;;;;;5018259;28;20045;-27
2022/12/30 08:01:20;;;;;;;19.90;2.80;;;4.00;99.90;;;;;;5036557;28;20056;-28
2022/12/30 08:03:45;;;;;;;18.35;3.35;;;4.00;99.90;;;;;;5036335;28;20092;-27
2022/12/30 08:06:14;;;;;;;22.08;4.03;;;4.00;99.90;;;;;;5035998;28;20092;-28
2022/12/30 08:08:41;;;;;;;26.23;5.28;;;4.00;99.90;;;;;;5035979;28;20085;-27
2022/12/30 08:11:08;;;;;;;20.25;3.35;;;4.00;99.90;;;;;;5035597;28;20561;-27
2022/12/30 08:13:36;;;;;;;19.35;3.90;;;4.00;99.90;;;;;;5035809;28;20387;-27
2022/12/30 08:16:06;;;;;;;17.35;3.30;;;4.10;99.90;;;;;;5018437;28;20045;-27
2022/12/30 08:18:32;;;;;;;16.58;3.13;;;4.10;99.90;;;;;;5035836;28;20060;-27
2022/12/30 08:21:02;;;;;;;27.05;4.82;;;4.10;99.90;;;;;;5035723;28;20057;-28
2022/12/30 08:23:29;;;;;;;19.75;3.90;;;4.20;99.90;;;;;;5018852;28;20055;-27
2022/12/30 08:25:55;;;;;;;16.08;3.17;;;4.20;99.90;;;;;;5018179;28;20053;-27
2022/12/30 08:28:21;;;;;;;17.75;4.32;;;4.20;99.90;;;;;;5018118;28;20056;-27
2022/12/30 08:30:47;;;;;;;18.92;3.35;;;4.30;99.90;;;;;;5035852;28;20050;-28
2022/12/30 08:33:13;;;;;;;23.38;4.15;;;4.30;99.90;;;;;;5035426;28;20041;-27
2022/12/30 08:35:39;;;;;;;19.00;3.25;;;4.30;99.90;;;;;;5036273;28;20087;-27
2022/12/30 08:38:05;;;;;;;15.32;3.90;;;4.30;99.90;;;;;;5035145;28;20052;-27
2022/12/30 08:40:33;;;;;;;20.48;4.38;;;4.40;99.90;;;;;;5036136;28;20045;-27
2022/12/30 08:42:59;;;;;;;18.67;3.67;;;4.40;99.90;;;;;;5036118;28;20124;-28
2022/12/30 08:45:25;;;;;;;17.55;2.97;;;4.40;99.90;;;;;;5017576;28;20555;-28
2022/12/30 08:47:51;;;;;;;18.77;5.18;;;4.30;99.90;;;;;;5035184;28;20057;-27
2022/12/30 08:50:17;;;;;;;24.65;3.33;;;4.50;99.90;;;;;;5035161;28;20050;-27
2022/12/30 08:52:43;;;;;;;19.67;3.83;;;4.50;99.90;;;;;;5035121;28;20087;-27
2022/12/30 08:55:09;;;;;;;28.20;6.53;;;4.50;99.90;;;;;;5035609;28;20388;-27
2022/12/30 08:57:38;;;;;;;23.35;5.38;;;4.50;99.90;;;;;;5034381;28;20038;-27
2022/12/30 09:00:06;;;;;;;21.90;4.38;;;4.50;99.90;;;;;;5017489;28;20164;-27
2022/12/30 09:02:33;;;;;;;15.20;3.58;;;4.60;99.90;;;;;;5035214;28;20061;-28
2022/12/30 09:05:00;;;;;;;19.38;3.38;;;4.60;99.90;;;;;;5035214;28;20048;-27
2022/12/30 09:07:25;;;;;;;20.30;3.28;;;4.50;99.90;;;;;;5034860;28;20106;-27
2022/12/30 09:09:51;;;;;;;16.75;2.95;;;4.60;99.90;;;;;;5017022;28;20128;-27
2022/12/30 09:12:17;;;;;;;14.82;2.90;;;4.60;99.90;;;;;;5034675;28;20391;-27
2022/12/30 09:14:43;;;;;;;19.15;3.60;;;4.60;99.90;;;;;;5034660;28;20041;-27
2022/12/30 09:17:09;;;;;;;20.23;4.03;;;4.50;99.90;;;;;;5017582;28;20048;-27
2022/12/30 09:19:35;;;;;;;18.45;3.15;;;4.60;99.90;;;;;;5034670;28;20053;-27
2022/12/30 09:22:00;;;;;;;22.02;3.70;;;4.60;99.90;;;;;;5034603;28;20056;-27
2022/12/30 09:24:26;;;;;;;13.18;2.80;;;4.60;99.90;;;;;;5035100;28;20111;-27
2022/12/30 09:26:52;;;;;;;16.25;3.28;;;4.60;99.90;;;;;;5034505;28;20041;-27
2022/12/30 09:29:18;;;;;;;14.10;2.65;;;4.70;99.90;;;;;;5034707;28;20049;-27
2022/12/30 09:31:44;;;;;;;15.50;2.60;;;4.70;99.90;;;;;;5017728;28;20050;-27
2022/12/30 09:34:11;;;;;;;18.25;2.95;;;4.70;99.90;;;;;;5016975;28;20137;-27
2022/12/30 09:36:37;;;;;;;24.10;3.03;;;4.80;99.90;;;;;;5034326;28;20128;-27
2022/12/30 09:39:02;;;;;;;23.42;3.83;;;4.80;99.90;;;;;;5016597;28;20154;-27
2022/12/30 09:44:31;;;;;;;18.52;2.83;;;4.90;99.90;;;;;;5034457;28;20055;-27
2022/12/30 09:47:26;;;;;;;15.80;3.42;;;5.00;99.90;;;;;;5034206;28;20045;-27
2022/12/30 09:50:11;;;;;;;14.02;3.03;;;5.00;99.90;;;;;;5030801;28;20091;-27
2022/12/30 09:52:45;;;;;;;19.25;2.55;;;5.10;99.90;;;;;;5019402;28;20044;-27
2022/12/30 09:55:22;;;;;;;20.05;3.22;;;5.20;99.90;;;;;;5037203;28;20123;-27
2022/12/30 09:57:58;;;;;;;16.80;2.95;;;5.20;99.90;;;;;;5019800;28;20110;-27
2022/12/30 10:00:27;;;;;;;13.25;3.30;;;5.20;99.90;;;;;;5054497;28;20088;-27
2022/12/30 10:03:10;;;;;;;19.27;3.38;;;5.30;99.90;;;;;;5053784;28;20154;-27
2022/12/30 10:05:48;;;;;;;14.60;2.63;;;5.40;99.90;;;;;;5036558;28;20049;-27
2022/12/30 10:08:14;;;;;;;11.43;2.60;;;5.40;99.90;;;;;;5054014;28;20083;-27
2022/12/30 10:10:52;;;;;;;12.07;2.58;;;5.50;99.90;;;;;;5053507;28;20080;-27
2022/12/30 10:13:48;;;;;;;10.95;2.33;;;5.50;99.90;;;;;;5053929;28;20099;-28
2022/12/30 10:16:46;;;;;;;15.95;2.55;;;5.60;99.90;;;;;;5048256;28;20061;-27
2022/12/30 10:19:28;;;;;;;10.20;2.22;;;5.60;99.90;;;;;;5000691;28;20514;-28
2022/12/30 10:21:59;;;;;;;19.77;2.75;;;5.60;99.90;;;;;;5053635;28;20067;-27
2022/12/30 10:24:33;;;;;;;10.25;2.63;;;5.60;99.90;;;;;;5054134;28;20049;-27
2022/12/30 10:27:18;;;;;;;7.57;2.50;;;5.70;99.90;;;;;;5053527;28;20084;-27
2022/12/30 10:29:44;;;;;;;13.18;2.42;;;5.80;99.90;;;;;;5053545;28;20045;-27
2022/12/30 10:32:22;;;;;;;10.93;2.45;;;5.90;99.90;;;;;;5053364;28;20056;-28
2022/12/30 10:34:54;;;;;;;17.38;2.53;;;6.00;99.90;;;;;;5053477;28;20146;-27
2022/12/30 10:37:31;;;;;;;14.88;3.22;;;6.00;99.90;;;;;;5053486;28;20103;-27
2022/12/30 10:39:58;;;;;;;10.50;2.47;;;6.00;99.90;;;;;;5020263;28;20056;-27
2022/12/30 10:42:58;;;;;;;18.10;3.28;;;6.10;99.90;;;;;;5019365;28;20053;-27
2022/12/30 10:45:42;;;;;;;11.52;2.05;;;6.10;99.90;;;;;;5053692;28;20048;-28
2022/12/30 10:48:26;;;;;;;11.10;2.53;;;6.20;99.90;;;;;;5053339;28;20134;-28
2022/12/30 10:50:53;;;;;;;8.32;2.17;;;6.20;99.90;;;;;;5053692;28;20056;-28
2022/12/30 10:53:22;;;;;;;11.43;2.42;;;6.30;99.90;;;;;;5053157;28;20047;-28
2022/12/30 10:55:52;;;;;;;12.35;2.28;;;6.40;99.90;;;;;;5035687;28;20044;-28
2022/12/30 10:58:44;;;;;;;12.48;2.20;;;6.40;99.90;;;;;;5053121;28;20048;-28
2022/12/30 11:01:18;;;;;;;11.57;2.20;;;6.40;99.90;;;;;;5053774;28;20041;-27
2022/12/30 11:03:56;;;;;;;11.68;2.55;;;6.40;99.90;;;;;;5045414;28;20052;-28
2022/12/30 11:06:27;;;;;;;10.85;1.92;;;6.40;99.90;;;;;;5053949;28;20138;-28
2022/12/30 11:09:14;;;;;;;12.27;1.92;;;6.40;99.90;;;;;;5051677;28;20049;-27
2022/12/30 11:14:43;;;;;;;9.70;1.90;;;6.40;99.90;;;;;;5053373;28;20049;-28
2022/12/30 11:17:22;;;;;;;6.55;1.85;;;6.40;99.90;;;;;;5053065;28;20052;-28
2022/12/30 11:19:57;;;;;;;9.52;1.98;;;6.40;99.90;;;;;;5053122;28;20045;-28
2022/12/30 11:22:23;;;;;;;11.40;1.65;;;6.40;99.90;;;;;;5055126;28;20041;-27
2022/12/30 11:25:03;;;;;;;9.30;1.95;;;6.40;99.90;;;;;;5055785;28;20045;-27
2022/12/30 11:27:41;;;;;;;7.78;1.88;;;6.50;99.90;;;;;;5039456;28;20059;-28
2022/12/30 11:30:21;;;;;;;8.00;2.15;;;6.50;99.90;;;;;;5055765;28;20053;-28
2022/12/30 11:32:46;;;;;;;11.65;2.03;;;6.60;99.90;;;;;;5056863;28;20360;-28
2022/12/30 11:35:34;;;;;;;11.55;2.20;;;6.60;99.90;;;;;;5056536;28;20052;-28
2022/12/30 11:38:00;;;;;;;11.30;2.28;;;6.70;99.90;;;;;;5055800;28;20049;-28
2022/12/30 11:40:34;;;;;;;8.50;1.85;;;6.70;99.90;;;;;;5056727;28;20055;-28
2022/12/30 11:43:19;;;;;;;11.05;2.00;;;6.70;99.90;;;;;;5056117;28;20036;-28
2022/12/30 11:46:06;;;;;;;7.45;1.65;;;6.70;99.90;;;;;;5056445;28;20047;-28
2022/12/30 11:48:33;;;;;;;7.63;2.00;;;6.80;99.90;;;;;;5055901;28;20447;-28
2022/12/30 11:51:01;;;;;;;11.75;2.55;;;6.90;99.90;;;;;;5056207;28;20597;-28
2022/12/30 11:53:36;;;;;;;8.15;1.67;;;6.90;99.90;;;;;;5056132;28;20047;-28
2022/12/30 11:56:02;;;;;;;9.73;1.98;;;6.90;99.90;;;;;;5056364;28;20049;-28
2022/12/30 11:58:33;;;;;;;9.35;1.45;;;7.00;99.90;;;;;;5054836;28;20497;-27
2022/12/30 12:01:06;;;;;;;9.88;1.83;;;7.00;99.90;;;;;;5056110;28;20051;-28
2022/12/30 12:03:32;;;;;;;10.63;2.05;;;7.10;99.90;;;;;;5055832;28;20057;-27
2022/12/30 12:06:08;;;;;;;9.23;1.98;;;7.10;99.90;;;;;;5055904;28;20140;-27
2022/12/30 12:08:56;;;;;;;11.68;2.00;;;7.10;99.90;;;;;;5056546;28;20048;-27
2022/12/30 12:11:30;;;;;;;16.67;2.15;;;7.10;99.90;;;;;;5056733;28;20442;-27
2022/12/30 12:14:07;;;;;;;8.43;2.22;;;7.10;99.90;;;;;;5022675;28;20059;-27
2022/12/30 12:16:43;;;;;;;10.23;2.35;;;7.20;99.90;;;;;;5056666;28;20049;-28
2022/12/30 12:19:34;;;;;;;9.48;1.52;;;7.20;99.90;;;;;;5056643;28;20045;-27
2022/12/30 12:22:04;;;;;;;5.93;1.70;;;7.30;99.90;;;;;;5037909;28;20099;-28
2022/12/30 12:24:38;;;;;;;9.93;1.92;;;7.30;99.90;;;;;;5055749;28;20048;-27
2022/12/30 12:27:14;;;;;;;6.65;1.58;;;7.30;99.90;;;;;;5055603;28;20079;-27
2022/12/30 12:29:40;;;;;;;7.88;0.90;;;7.40;99.90;;;;;;5021676;28;20064;-27
2022/12/30 12:32:24;;;;;;;6.68;1.10;;;7.40;99.90;;;;;;5055644;28;20041;-27
2022/12/30 12:35:09;;;;;;;6.65;0.90;;;7.40;99.90;;;;;;5056212;28;20053;-27
2022/12/30 12:38:12;;;;;;;4.57;1.13;;;7.40;99.90;;;;;;5038511;28;20041;-27
2022/12/30 12:41:02;;;;;;;6.03;1.40;;;7.40;99.90;;;;;;5055317;28;20056;-27
2022/12/30 12:43:51;;;;;;;9.57;1.75;;;7.50;99.90;;;;;;5056145;28;20058;-28
2022/12/30 12:46:29;;;;;;;9.15;1.67;;;7.50;99.90;;;;;;5055234;28;20051;-27
2022/12/30 12:49:16;;;;;;;11.07;2.10;;;7.60;99.90;;;;;;5037891;28;20056;-27
2022/12/30 12:52:03;;;;;;;5.40;1.00;;;7.60;99.90;;;;;;5055024;28;20079;-27
2022/12/30 12:55:12;;;;;;;7.05;1.60;;;7.60;99.90;;;;;;5054986;28;20053;-27
2022/12/30 12:57:50;;;;;;;7.15;1.48;;;7.70;99.90;;;;;;5023775;28;20554;-28
2022/12/30 13:00:22;;;;;;;7.18;0.95;;;7.80;99.90;;;;;;5055841;28;20068;-28
2022/12/30 13:03:06;;;;;;;3.75;0.73;;;7.70;99.90;;;;;;5054975;28;20119;-27
2022/12/30 13:05:56;;;;;;;6.03;0.93;;;7.80;99.90;;;;;;5055770;28;20045;-27
2022/12/30 13:08:31;;;;;;;8.23;1.77;;;7.80;99.90;;;;;;5054832;28;20102;-27
2022/12/30 13:11:38;;;;;;;7.68;1.30;;;7.70;99.90;;;;;;5054786;28;20131;-27
2022/12/30 13:14:31;;;;;;;8.32;1.67;;;7.70;99.90;;;;;;5054353;28;20053;-27
2022/12/30 13:17:00;;;;;;;6.25;0.90;;;7.70;99.90;;;;;;5036809;28;20430;-27
2022/12/30 13:19:35;;;;;;;8.52;1.52;;;7.70;99.90;;;;;;5054584;28;20053;-28
2022/12/30 13:22:07;;;;;;;9.50;1.58;;;7.80;99.90;;;;;;5054542;28;20167;-28
2022/12/30 13:24:39;;;;;;;6.13;1.35;;;7.80;99.90;;;;;;5055371;28;20045;-27
2022/12/30 13:27:11;;;;;;;9.77;1.35;;;7.90;99.90;;;;;;5054419;28;20045;-28
2022/12/30 13:29:38;;;;;;;10.77;1.48;;;7.90;99.90;;;;;;5037349;28;20387;-28
2022/12/30 13:32:20;;;;;;;11.25;1.33;;;7.90;99.90;;;;;;5055101;28;20386;-27
2022/12/30 13:34:57;;;;;;;7.75;1.08;;;8.00;99.90;;;;;;5054363;28;20487;-27
2022/12/30 13:37:41;;;;;;;9.27;1.83;;;8.00;99.90;;;;;;5037093;28;20055;-27
2022/12/30 13:40:14;;;;;;;7.15;1.05;;;8.00;99.90;;;;;;5037097;28;20053;-27
2022/12/30 13:42:52;;;;;;;6.70;1.02;;;8.00;99.90;;;;;;5054402;28;20434;-27
2022/12/30 13:45:33;;;;;;;6.35;1.15;;;8.10;99.90;;;;;;5053698;28;20053;-27
2022/12/30 13:48:04;;;;;;;6.60;1.10;;;8.10;99.90;;;;;;5054337;28;20040;-27
2022/12/30 13:50:33;;;;;;;6.93;1.30;;;8.20;99.90;;;;;;5036873;28;20049;-27
2022/12/30 13:53:01;;;;;;;5.63;1.17;;;8.20;99.90;;;;;;5054664;28;20119;-27
2022/12/30 13:55:31;;;;;;;7.32;1.73;;;8.20;99.90;;;;;;5053927;28;20150;-27
2022/12/30 13:58:02;;;;;;;7.30;1.40;;;8.30;99.50;;;;;;5019978;28;20076;-27
2022/12/30 14:00:31;;;;;;;8.63;1.33;;;8.30;99.90;;;;;;5053860;28;20483;-27
2022/12/30 14:03:01;;;;;;;3.83;0.68;;;8.40;99.90;;;;;;5053518;28;20036;-27
2022/12/30 14:05:39;;;;;;;8.90;1.65;;;8.40;91.70;;;;;;5054415;28;20545;-27
2022/12/30 14:08:26;;;;;;;6.63;1.42;;;8.40;1.00;;;;;;5053806;28;20048;-27